Time;durP1;ratioP1;P1;durP2;ratioP2;P2;SDS_P1;SDS_P2;PMS_P1;PMS_P2;Temp;Humidity;BMP_temperature;BMP_pressure;BME280_temperature;BME280_humidity;BME280_pressure;Samples;Min_cycle;Max_cycle;Signal;HPM_P1;HPM_P2
2022/03/27 00:02:24;;;;;;;1.15;0.60;;;;;;;0.11;100.00;98467.81;5151576;27;20046;-69
2022/03/27 00:04:50;;;;;;;0.50;0.50;;;;;;;0.11;100.00;98462.44;5151190;27;20515;-69
2022/03/27 00:07:16;;;;;;;0.50;0.50;;;;;;;-0.17;100.00;98442.19;5151647;27;20058;-69
2022/03/27 00:09:43;;;;;;;0.50;0.50;;;;;;;-0.20;100.00;98438.25;5151198;27;20053;-69
2022/03/27 00:12:10;;;;;;;0.70;0.57;;;;;;;-0.22;100.00;98434.28;5151008;27;20521;-68
2022/03/27 00:14:36;;;;;;;0.50;0.50;;;;;;;-0.54;100.00;98446.94;5151198;27;20089;-68
2022/03/27 00:17:03;;;;;;;0.68;0.65;;;;;;;-0.56;100.00;98433.81;5152373;27;20089;-68
2022/03/27 00:19:29;;;;;;;1.05;0.70;;;;;;;-0.60;100.00;98427.47;5155075;27;20205;-69
2022/03/27 00:21:55;;;;;;;0.68;0.60;;;;;;;-0.55;100.00;98415.75;5155079;27;20073;-68
2022/03/27 00:24:22;;;;;;;3.13;0.80;;;;;;;-0.61;100.00;98427.75;5154855;27;20078;-69
2022/03/27 00:26:49;;;;;;;1.10;0.70;;;;;;;-0.66;100.00;98426.00;5154746;27;20138;-69
2022/03/27 00:29:16;;;;;;;5.60;0.70;;;;;;;-0.68;100.00;98430.88;5154775;27;20051;-68
2022/03/27 00:31:44;;;;;;;0.57;0.57;;;;;;;-0.68;100.00;98438.19;5154704;27;20088;-68
2022/03/27 00:34:11;;;;;;;1.25;0.60;;;;;;;-0.53;100.00;98443.97;5154889;27;20497;-68
2022/03/27 00:36:37;;;;;;;0.63;0.55;;;;;;;-0.61;100.00;98474.31;5154542;27;20046;-69
2022/03/27 00:39:03;;;;;;;3.40;0.60;;;;;;;-0.57;100.00;98456.44;5154765;27;20458;-68
2022/03/27 00:41:30;;;;;;;0.60;0.60;;;;;;;-0.48;100.00;98468.06;5154392;27;20054;-68
2022/03/27 00:43:57;;;;;;;0.82;0.82;;;;;;;-0.55;100.00;98477.69;5154590;27;20043;-68
2022/03/27 00:46:23;;;;;;;2.75;0.88;;;;;;;-0.54;100.00;98480.06;5154384;27;20114;-68
2022/03/27 00:48:49;;;;;;;1.08;0.50;;;;;;;-0.77;100.00;98476.63;5154659;27;20064;-68
2022/03/27 00:51:16;;;;;;;1.67;0.70;;;;;;;-0.71;100.00;98451.13;5154292;27;20068;-69
2022/03/27 00:53:42;;;;;;;1.33;0.68;;;;;;;-0.76;100.00;98450.50;5154486;27;20483;-68
2022/03/27 00:56:08;;;;;;;1.20;0.60;;;;;;;-0.98;100.00;98422.47;5154791;27;20118;-69
2022/03/27 00:58:34;;;;;;;1.02;0.80;;;;;;;-1.05;100.00;98397.91;5154672;27;20476;-69
2022/03/27 01:01:15;;;;;;;0.63;0.63;;;;;;;-1.14;100.00;98361.28;5154652;27;20051;-68
2022/03/27 01:03:42;;;;;;;0.70;0.70;;;;;;;-1.12;100.00;98341.06;5154190;27;20086;-69
2022/03/27 01:06:25;;;;;;;0.90;0.85;;;;;;;-1.20;100.00;98309.50;5154201;27;20076;-69
2022/03/27 01:11:36;;;;;;;2.20;1.05;;;;;;;-1.09;100.00;98273.19;5154247;27;20041;-69
2022/03/27 01:14:03;;;;;;;0.70;0.70;;;;;;;-1.14;100.00;98283.28;5153739;27;20058;-68
2022/03/27 01:16:37;;;;;;;0.85;0.80;;;;;;;-1.14;100.00;98265.25;5154016;27;20050;-69
2022/03/27 01:19:05;;;;;;;0.85;0.80;;;;;;;-1.07;100.00;98262.13;5153820;27;20420;-69
2022/03/27 01:21:35;;;;;;;0.95;0.90;;;;;;;-1.09;100.00;98253.59;5153757;27;20046;-69
2022/03/27 01:24:02;;;;;;;4.63;0.63;;;;;;;-1.03;100.00;98255.03;5154223;27;20051;-70
2022/03/27 01:26:29;;;;;;;0.98;0.80;;;;;;;-0.92;100.00;98259.03;5153667;27;20057;-69
2022/03/27 01:28:56;;;;;;;1.17;0.70;;;;;;;-0.95;100.00;98248.88;5153426;27;20501;-70
2022/03/27 01:31:23;;;;;;;2.50;0.85;;;;;;;-0.81;100.00;98254.94;5153753;27;20047;-69
2022/03/27 01:33:50;;;;;;;1.98;0.90;;;;;;;-0.68;100.00;98264.00;5153650;27;20398;-69
2022/03/27 01:36:22;;;;;;;1.48;1.38;;;;;;;-0.57;100.00;98262.59;5153662;27;20103;-70
2022/03/27 01:38:50;;;;;;;0.80;0.80;;;;;;;-0.85;100.00;98296.25;5153826;27;20053;-69
2022/03/27 01:41:16;;;;;;;1.20;0.93;;;;;;;-1.03;100.00;98386.84;5153857;27;20046;-69
2022/03/27 01:43:43;;;;;;;1.33;0.98;;;;;;;-1.24;100.00;98416.13;5153709;27;20073;-69
2022/03/27 01:46:09;;;;;;;4.88;1.70;;;;;;;-1.14;100.00;98460.81;5153653;27;20138;-69
2022/03/27 01:48:36;;;;;;;0.80;0.80;;;;;;;-1.16;100.00;98447.69;5153433;27;20050;-69
2022/03/27 01:51:03;;;;;;;0.90;0.80;;;;;;;-1.25;100.00;98407.25;5153450;27;20054;-69
2022/03/27 01:53:30;;;;;;;1.10;1.00;;;;;;;-1.40;100.00;98371.88;5153282;27;20046;-69
2022/03/27 01:55:57;;;;;;;0.98;0.85;;;;;;;-1.40;100.00;98358.44;5153341;27;20444;-70
2022/03/27 01:58:23;;;;;;;0.75;0.75;;;;;;;-1.38;100.00;98348.16;5153491;27;20445;-70
2022/03/27 02:00:50;;;;;;;0.70;0.70;;;;;;;-1.25;100.00;98323.91;5153203;27;20050;-68
2022/03/27 02:03:16;;;;;;;1.20;1.02;;;;;;;-1.13;100.00;98306.38;5153385;27;20058;-69
2022/03/27 02:05:43;;;;;;;1.33;1.02;;;;;;;-1.10;100.00;98320.03;5153338;27;20081;-69
2022/03/27 02:08:12;;;;;;;1.73;0.90;;;;;;;-1.07;100.00;98338.22;5153178;27;20057;-68
2022/03/27 02:10:40;;;;;;;1.70;0.70;;;;;;;-1.10;100.00;98371.16;5153215;27;20498;-70
2022/03/27 02:13:13;;;;;;;1.30;0.82;;;;;;;-1.04;100.00;98390.63;5152761;27;20047;-69
2022/03/27 02:15:39;;;;;;;0.60;0.60;;;;;;;-1.03;100.00;98406.47;5153015;27;20050;-69
2022/03/27 02:18:05;;;;;;;2.80;0.90;;;;;;;-0.93;100.00;98399.22;5153315;27;20157;-70
2022/03/27 02:20:31;;;;;;;1.88;0.70;;;;;;;-0.90;100.00;98410.19;5152862;27;20043;-69
2022/03/27 02:22:58;;;;;;;0.75;0.75;;;;;;;-0.85;100.00;98420.81;5152845;27;20047;-69
2022/03/27 02:25:24;;;;;;;0.88;0.60;;;;;;;-0.72;100.00;98419.16;5152922;27;20058;-69
2022/03/27 02:27:50;;;;;;;1.02;0.70;;;;;;;-0.69;100.00;98410.47;5153113;27;20215;-69
2022/03/27 02:30:19;;;;;;;1.58;0.90;;;;;;;-0.64;100.00;98433.75;5153120;27;20161;-69
2022/03/27 02:32:47;;;;;;;4.80;0.90;;;;;;;-0.70;100.00;98446.53;5152703;27;20051;-69
2022/03/27 02:35:13;;;;;;;0.95;0.77;;;;;;;-0.74;100.00;98451.75;5152825;27;20046;-69
2022/03/27 02:37:39;;;;;;;0.70;0.70;;;;;;;-0.81;100.00;98453.28;5152716;27;20077;-69
2022/03/27 02:40:07;;;;;;;0.93;0.65;;;;;;;-0.82;100.00;98465.16;5151836;27;20042;-69
2022/03/27 02:42:33;;;;;;;0.98;0.70;;;;;;;-0.69;100.00;98491.22;5152500;27;20061;-69
2022/03/27 02:44:59;;;;;;;1.33;0.60;;;;;;;-0.80;100.00;98511.38;5152687;27;20888;-70
2022/03/27 02:47:26;;;;;;;1.67;0.70;;;;;;;-0.91;100.00;98512.75;5152641;27;20553;-69
2022/03/27 02:49:52;;;;;;;0.60;0.60;;;;;;;-0.91;100.00;98520.81;5152790;27;20161;-69
2022/03/27 02:52:19;;;;;;;0.70;0.70;;;;;;;-0.93;100.00;98509.56;5152561;27;20417;-69
2022/03/27 02:54:45;;;;;;;1.70;0.93;;;;;;;-0.85;100.00;98511.53;5152733;27;20085;-69
2022/03/27 02:57:11;;;;;;;1.05;0.70;;;;;;;-0.82;100.00;98525.16;5152397;27;20137;-69
2022/03/27 02:59:38;;;;;;;0.95;0.60;;;;;;;-0.86;100.00;98518.81;5152243;27;20062;-70
2022/03/27 03:02:05;;;;;;;1.13;0.90;;;;;;;-0.87;100.00;98498.34;5152486;27;20056;-68
2022/03/27 03:04:33;;;;;;;1.27;1.00;;;;;;;-0.78;100.00;98482.28;5152394;27;20046;-68
2022/03/27 03:07:00;;;;;;;1.23;0.85;;;;;;;-0.81;100.00;98480.19;5152403;27;20498;-69
2022/03/27 03:09:26;;;;;;;0.77;0.77;;;;;;;-0.75;100.00;98484.38;5152134;27;20051;-69
2022/03/27 03:11:53;;;;;;;0.93;0.68;;;;;;;-0.65;100.00;98478.72;5152215;27;20087;-69
2022/03/27 03:14:19;;;;;;;1.60;1.50;;;;;;;-0.68;100.00;98459.72;5151480;27;20496;-69
2022/03/27 03:16:47;;;;;;;0.95;0.80;;;;;;;-0.61;100.00;98462.75;5151972;27;20051;-69
2022/03/27 03:19:13;;;;;;;0.80;0.80;;;;;;;-0.59;100.00;98437.13;5152162;27;20134;-69
2022/03/27 03:21:40;;;;;;;1.05;1.05;;;;;;;-0.47;100.00;98444.59;5152098;27;20046;-69
2022/03/27 03:24:07;;;;;;;0.60;0.60;;;;;;;-0.69;100.00;98436.59;5152217;27;20099;-69
2022/03/27 03:26:33;;;;;;;12.20;1.15;;;;;;;-1.03;100.00;98424.53;5151882;27;20054;-69
2022/03/27 03:29:00;;;;;;;0.85;0.80;;;;;;;-1.26;100.00;98404.91;5151990;27;20625;-68
2022/03/27 03:31:26;;;;;;;10.68;0.95;;;;;;;-1.59;100.00;98423.13;5151793;27;20046;-69
2022/03/27 03:33:53;;;;;;;0.80;0.80;;;;;;;-1.74;100.00;98454.59;5152033;27;20523;-69
2022/03/27 03:36:19;;;;;;;0.70;0.70;;;;;;;-1.80;100.00;98457.69;5151600;27;20046;-69
2022/03/27 03:38:46;;;;;;;1.95;0.75;;;;;;;-1.99;100.00;98466.66;5151759;27;20047;-69
2022/03/27 03:41:12;;;;;;;1.48;0.80;;;;;;;-2.01;100.00;98476.13;5151568;27;20043;-70
2022/03/27 03:43:38;;;;;;;3.70;0.98;;;;;;;-1.76;100.00;98459.50;5152027;27;20053;-68
2022/03/27 03:46:05;;;;;;;1.60;0.63;;;;;;;-1.62;100.00;98472.91;5151704;27;20159;-69
2022/03/27 03:48:32;;;;;;;0.95;0.70;;;;;;;-1.60;100.00;98467.22;5151620;27;20046;-69
2022/03/27 03:50:58;;;;;;;0.80;0.80;;;;;;;-1.75;100.00;98484.47;5151424;27;20050;-69
2022/03/27 03:53:25;;;;;;;2.53;0.80;;;;;;;-1.82;100.00;98479.50;5151400;27;20052;-69
2022/03/27 03:55:52;;;;;;;0.60;0.60;;;;;;;-1.83;100.00;98479.78;5151669;27;20137;-69
2022/03/27 03:58:18;;;;;;;1.45;0.70;;;;;;;-1.86;100.00;98473.13;5151494;27;20421;-68
2022/03/27 04:00:46;;;;;;;1.10;0.73;;;;;;;-2.15;100.00;98498.41;5151624;27;20468;-69
2022/03/27 04:03:13;;;;;;;1.48;0.68;;;;;;;-2.21;100.00;98488.84;5151437;27;20058;-69
2022/03/27 04:05:39;;;;;;;0.63;0.63;;;;;;;-2.25;100.00;98492.41;5151339;27;20055;-69
2022/03/27 04:08:06;;;;;;;1.35;0.80;;;;;;;-2.31;100.00;98477.50;5151297;27;20505;-69
2022/03/27 04:10:32;;;;;;;0.60;0.60;;;;;;;-2.36;100.00;98497.19;5151685;27;20142;-69
2022/03/27 04:12:59;;;;;;;7.28;1.45;;;;;;;-2.29;100.00;98492.22;5150727;27;20082;-69
2022/03/27 04:15:25;;;;;;;0.88;0.88;;;;;;;-2.35;100.00;98517.56;5151011;27;20053;-69
2022/03/27 04:17:52;;;;;;;0.85;0.80;;;;;;;-2.24;100.00;98520.84;5151378;27;20445;-69
2022/03/27 04:20:18;;;;;;;0.88;0.73;;;;;;;-2.17;100.00;98521.25;5151210;27;20047;-68
2022/03/27 04:22:46;;;;;;;1.15;0.80;;;;;;;-2.18;100.00;98533.91;5151371;27;20051;-69
2022/03/27 04:25:13;;;;;;;1.00;0.75;;;;;;;-2.06;100.00;98544.16;5150919;27;20042;-69
2022/03/27 04:27:40;;;;;;;0.73;0.73;;;;;;;-1.98;100.00;98567.66;5151312;27;20410;-69
2022/03/27 04:30:10;;;;;;;1.45;1.00;;;;;;;-1.76;100.00;98572.34;5151191;27;20050;-69
2022/03/27 04:32:36;;;;;;;0.88;0.70;;;;;;;-1.60;100.00;98580.91;5151063;27;20057;-69
2022/03/27 04:35:03;;;;;;;1.10;0.80;;;;;;;-1.41;100.00;98599.63;5151000;27;20057;-69
2022/03/27 04:37:30;;;;;;;1.67;1.23;;;;;;;-0.24;100.00;98618.53;5150690;27;20058;-69
2022/03/27 04:40:02;;;;;;;0.80;0.70;;;;;;;0.42;100.00;98678.06;5150745;27;20081;-69
2022/03/27 04:42:28;;;;;;;2.92;0.77;;;;;;;0.87;100.00;98748.13;5150853;27;20493;-71
2022/03/27 04:44:55;;;;;;;0.70;0.70;;;;;;;1.26;100.00;98816.72;5150925;27;20091;-70
2022/03/27 04:47:21;;;;;;;1.13;1.05;;;;;;;0.53;100.00;98870.09;5150731;27;20506;-69
2022/03/27 04:49:48;;;;;;;2.63;0.70;;;;;;;0.15;100.00;98883.09;5151211;27;20084;-70
2022/03/27 04:52:14;;;;;;;0.80;0.60;;;;;;;-0.53;100.00;98879.38;5150919;27;20121;-69
2022/03/27 04:54:40;;;;;;;1.00;0.80;;;;;;;-0.28;100.00;98846.53;5151038;27;20546;-69
2022/03/27 04:57:07;;;;;;;1.88;0.88;;;;;;;0.58;100.00;98861.09;5150711;27;20429;-69
2022/03/27 04:59:33;;;;;;;0.90;0.75;;;;;;;0.72;100.00;98896.13;5150955;27;20042;-69
2022/03/27 05:02:01;;;;;;;3.72;0.70;;;;;;;0.55;100.00;98929.16;5150723;27;20049;-69
2022/03/27 05:04:28;;;;;;;1.08;0.80;;;;;;;0.86;100.00;98937.31;5154066;27;20103;-70
2022/03/27 05:06:54;;;;;;;0.88;0.73;;;;;;;0.43;100.00;98953.94;5154030;27;20057;-69
2022/03/27 05:09:21;;;;;;;1.30;0.70;;;;;;;1.28;100.00;98952.25;5154156;27;20055;-69
2022/03/27 05:11:47;;;;;;;2.65;1.20;;;;;;;1.95;100.00;98977.53;5154236;27;20047;-70
2022/03/27 05:14:13;;;;;;;1.15;0.90;;;;;;;2.00;100.00;99013.34;5153665;27;20528;-68
2022/03/27 05:16:39;;;;;;;1.35;0.88;;;;;;;1.59;100.00;99029.81;5153996;27;20054;-70
2022/03/27 05:19:06;;;;;;;1.27;0.75;;;;;;;1.70;100.00;99014.94;5153944;27;20431;-69
2022/03/27 05:21:34;;;;;;;4.97;1.00;;;;;;;1.46;100.00;99031.47;5153976;27;20089;-70
2022/03/27 05:24:01;;;;;;;0.68;0.60;;;;;;;1.38;100.00;99053.81;5153814;27;20046;-69
2022/03/27 05:26:27;;;;;;;1.63;0.80;;;;;;;1.50;100.00;99059.50;5154166;27;20054;-71
2022/03/27 05:28:55;;;;;;;0.90;0.80;;;;;;;1.53;100.00;99075.06;5153771;27;20050;-68
2022/03/27 05:31:21;;;;;;;0.95;0.90;;;;;;;1.83;100.00;99081.66;5153822;27;20057;-69
2022/03/27 05:33:48;;;;;;;1.70;1.08;;;;;;;2.98;100.00;99082.53;5153577;27;20059;-69
2022/03/27 05:36:14;;;;;;;1.05;0.80;;;;;;;2.39;100.00;99133.47;5153883;27;20183;-69
2022/03/27 05:38:41;;;;;;;1.58;0.98;;;;;;;2.18;100.00;99114.28;5153882;27;20080;-69
2022/03/27 05:41:09;;;;;;;1.67;1.00;;;;;;;2.65;100.00;99125.47;5153719;27;20141;-70
2022/03/27 05:43:36;;;;;;;1.52;0.75;;;;;;;2.31;100.00;99131.53;5153636;27;20054;-69
2022/03/27 05:46:02;;;;;;;0.93;0.75;;;;;;;1.75;100.00;99155.34;5153572;27;20586;-69
2022/03/27 05:48:29;;;;;;;2.63;1.08;;;;;;;1.51;100.00;99125.13;5153521;27;20087;-69
2022/03/27 05:50:55;;;;;;;1.38;0.80;;;;;;;1.37;100.00;99123.25;5153429;27;20082;-69
2022/03/27 05:53:21;;;;;;;1.40;0.70;;;;;;;1.35;100.00;99124.66;5153523;27;20050;-69
2022/03/27 05:55:48;;;;;;;0.63;0.63;;;;;;;1.07;100.00;99132.84;5153397;27;20055;-69
2022/03/27 05:58:16;;;;;;;0.75;0.75;;;;;;;1.01;100.00;99107.03;5153182;27;20065;-69
2022/03/27 06:00:42;;;;;;;0.95;0.80;;;;;;;1.30;100.00;99086.94;5153180;27;20047;-68
2022/03/27 06:03:08;;;;;;;1.02;0.73;;;;;;;1.23;100.00;99103.56;5153646;27;20058;-69
2022/03/27 06:05:35;;;;;;;1.00;0.80;;;;;;;0.78;100.00;99108.88;5153541;27;20069;-69
2022/03/27 06:08:01;;;;;;;1.33;0.70;;;;;;;0.56;100.00;99111.47;5153177;27;20061;-69
2022/03/27 06:10:31;;;;;;;1.38;0.93;;;;;;;0.33;100.00;99078.19;5153201;27;20051;-69
2022/03/27 06:12:58;;;;;;;6.13;0.80;;;;;;;0.34;100.00;99064.44;5152459;27;20534;-70
2022/03/27 06:15:25;;;;;;;1.52;0.70;;;;;;;0.84;100.00;99040.19;5153087;27;20517;-69
2022/03/27 06:17:53;;;;;;;2.15;0.80;;;;;;;0.58;100.00;99052.63;5153006;27;20058;-69
2022/03/27 06:20:22;;;;;;;1.13;0.70;;;;;;;0.25;100.00;99077.00;5153305;27;20053;-69
2022/03/27 06:22:48;;;;;;;0.50;0.50;;;;;;;-0.02;100.00;99065.09;5152652;27;20050;-69
2022/03/27 06:25:16;;;;;;;1.25;0.77;;;;;;;0.10;100.00;99075.41;5152995;27;20424;-69
2022/03/27 06:27:43;;;;;;;0.73;0.73;;;;;;;0.20;100.00;99095.97;5152844;27;20395;-69
2022/03/27 06:30:12;;;;;;;2.03;0.63;;;;;;;0.61;100.00;99101.38;5152584;27;20134;-69
2022/03/27 06:32:38;;;;;;;1.00;0.80;;;;;;;0.62;100.00;99126.47;5152665;27;20095;-69
2022/03/27 06:35:07;;;;;;;4.68;0.60;;;;;;;0.66;100.00;99133.66;5152849;27;20051;-69
2022/03/27 06:37:33;;;;;;;1.67;0.90;;;;;;;0.79;100.00;99123.94;5152692;27;20050;-69
2022/03/27 06:40:00;;;;;;;1.50;0.60;;;;;;;1.35;100.00;99133.56;5152649;27;20078;-69
2022/03/27 06:42:27;;;;;;;2.67;0.80;;;;;;;1.98;100.00;99133.72;5152839;27;20046;-69
2022/03/27 06:44:55;;;;;;;0.80;0.77;;;;;;;2.66;100.00;99156.81;5152445;27;20557;-70
2022/03/27 06:47:24;;;;;;;2.28;0.80;;;;;;;2.32;100.00;99169.06;5152870;27;20104;-69
2022/03/27 06:49:51;;;;;;;0.60;0.60;;;;;;;3.02;100.00;99169.38;5152428;27;20049;-69
2022/03/27 06:52:18;;;;;;;1.63;0.85;;;;;;;2.75;100.00;99198.25;5152561;27;20141;-71
2022/03/27 06:54:45;;;;;;;0.82;0.80;;;;;;;2.46;100.00;99200.66;5152395;27;20107;-69
2022/03/27 06:57:12;;;;;;;1.30;0.73;;;;;;;2.83;100.00;99194.00;5151935;27;20057;-69
2022/03/27 07:05:09;;;;;;;4.10;1.00;;;;;;;3.19;93.68;99223.59;5152571;27;20184;-70
2022/03/27 07:07:36;;;;;;;2.65;0.95;;;;;;;2.91;94.77;99228.44;5151994;27;20054;-68
2022/03/27 07:10:02;;;;;;;0.85;0.85;;;;;;;3.29;96.36;99215.16;5152253;27;20042;-69
2022/03/27 07:12:29;;;;;;;3.92;0.90;;;;;;;4.24;91.09;99238.06;5151786;27;20046;-69
2022/03/27 07:14:56;;;;;;;0.50;0.50;;;;;;;4.24;83.30;99249.72;5152016;27;20079;-70
2022/03/27 07:17:23;;;;;;;0.77;0.77;;;;;;;3.72;83.95;99263.25;5151866;27;20444;-68
2022/03/27 07:19:49;;;;;;;2.42;0.70;;;;;;;3.65;82.63;99260.22;5152069;27;20421;-72
2022/03/27 07:22:16;;;;;;;0.95;0.70;;;;;;;3.10;84.12;99251.75;5151891;27;20046;-70
2022/03/27 07:24:42;;;;;;;0.90;0.90;;;;;;;3.15;86.18;99248.94;5152150;27;20142;-68
2022/03/27 07:27:09;;;;;;;0.70;0.70;;;;;;;2.89;88.19;99254.22;5151330;27;20122;-69
2022/03/27 07:29:37;;;;;;;0.88;0.88;;;;;;;2.83;88.92;99257.09;5151910;27;20114;-69
2022/03/27 07:32:04;;;;;;;0.60;0.60;;;;;;;3.11;87.86;99250.66;5152047;27;20091;-69
2022/03/27 07:34:31;;;;;;;0.70;0.70;;;;;;;4.03;84.10;99256.09;5151772;27;20058;-69
2022/03/27 07:36:57;;;;;;;4.50;0.82;;;;;;;3.97;80.37;99269.84;5151941;27;20051;-69
2022/03/27 07:39:23;;;;;;;4.22;0.88;;;;;;;4.40;80.19;99279.91;5151655;27;20050;-69
2022/03/27 07:41:50;;;;;;;2.22;0.80;;;;;;;4.41;78.89;99289.63;5151946;27;20047;-69
2022/03/27 07:44:16;;;;;;;0.70;0.70;;;;;;;4.82;78.56;99287.47;5151592;27;20106;-68
2022/03/27 07:46:42;;;;;;;0.85;0.85;;;;;;;4.45;76.54;99289.78;5151698;27;20451;-68
2022/03/27 07:49:09;;;;;;;0.85;0.70;;;;;;;4.49;76.82;99294.22;5151831;27;20193;-69
2022/03/27 07:51:36;;;;;;;15.52;1.17;;;;;;;4.09;75.09;99293.59;5151772;27;20051;-68
2022/03/27 07:54:03;;;;;;;0.80;0.80;;;;;;;4.01;74.12;99297.13;5152079;27;20123;-69
2022/03/27 07:56:29;;;;;;;2.08;0.73;;;;;;;4.42;73.80;99315.63;5151580;27;20467;-69
2022/03/27 07:58:56;;;;;;;1.00;0.90;;;;;;;4.65;70.29;99299.97;5152104;27;20471;-67
2022/03/27 08:01:23;;;;;;;0.60;0.60;;;;;;;4.71;68.93;99344.06;5151591;27;20367;-66
2022/03/27 08:03:49;;;;;;;9.32;0.90;;;;;;;4.67;67.01;99324.09;5151649;27;20043;-68
2022/03/27 08:06:16;;;;;;;1.30;0.88;;;;;;;4.61;66.63;99337.03;5151535;27;20107;-68
2022/03/27 08:08:43;;;;;;;1.33;0.80;;;;;;;4.84;67.11;99340.38;5151195;27;20043;-67
2022/03/27 08:11:10;;;;;;;1.05;0.70;;;;;;;5.30;67.80;99333.38;5151435;27;20057;-67
2022/03/27 08:13:36;;;;;;;1.05;0.73;;;;;;;6.17;67.38;99313.88;5150899;27;20049;-67
2022/03/27 08:16:03;;;;;;;0.80;0.80;;;;;;;6.68;65.21;99338.31;5151250;27;20047;-67
2022/03/27 08:18:29;;;;;;;2.10;0.90;;;;;;;6.83;66.64;99330.31;5151088;27;20134;-67
2022/03/27 08:20:56;;;;;;;0.57;0.57;;;;;;;6.10;69.06;99340.84;5151142;27;20047;-67
2022/03/27 08:23:22;;;;;;;0.80;0.80;;;;;;;5.22;70.29;99345.06;5151277;27;20099;-68
2022/03/27 08:28:33;;;;;;;2.45;0.75;;;;;;;5.26;73.21;99326.97;5151178;27;20050;-67
2022/03/27 08:31:01;;;;;;;1.08;0.90;;;;;;;6.03;74.63;99329.66;5150844;27;20043;-67
2022/03/27 08:33:28;;;;;;;0.90;0.90;;;;;;;6.33;71.66;99333.13;5151011;27;20086;-67
2022/03/27 08:35:54;;;;;;;1.17;0.88;;;;;;;6.44;69.55;99339.00;5151108;27;20047;-67
2022/03/27 08:38:20;;;;;;;2.53;1.20;;;;;;;6.79;68.83;99340.25;5152758;27;20086;-67
2022/03/27 08:40:47;;;;;;;1.38;0.82;;;;;;;6.60;67.37;99362.56;5154689;27;20043;-67
2022/03/27 08:43:16;;;;;;;1.85;0.90;;;;;;;5.93;66.92;99346.38;5154707;27;20455;-67
2022/03/27 08:45:44;;;;;;;0.70;0.70;;;;;;;4.93;69.22;99357.47;5154721;27;20402;-67
2022/03/27 08:48:11;;;;;;;2.72;1.58;;;;;;;5.63;71.27;99349.88;5154866;27;20053;-67
2022/03/27 08:50:43;;;;;;;0.80;0.73;;;;;;;6.29;67.74;99362.16;5154756;27;20050;-67
2022/03/27 08:53:11;;;;;;;0.80;0.80;;;;;;;6.07;66.36;99358.63;5155039;27;20043;-67
2022/03/27 08:55:40;;;;;;;2.95;0.70;;;;;;;6.46;65.72;99369.41;5154827;27;20058;-67
2022/03/27 08:58:08;;;;;;;0.93;0.60;;;;;;;6.66;63.67;99363.13;5154861;27;20046;-66
2022/03/27 09:00:35;;;;;;;1.95;0.60;;;;;;;6.73;62.47;99363.41;5154536;27;20054;-66
2022/03/27 09:03:03;;;;;;;0.95;0.95;;;;;;;6.81;61.24;99378.09;5154767;27;20051;-66
2022/03/27 09:05:30;;;;;;;0.90;0.70;;;;;;;6.68;60.25;99371.00;5154256;27;20142;-67
2022/03/27 09:08:02;;;;;;;7.57;0.95;;;;;;;6.87;60.52;99362.34;5154220;27;20058;-66
2022/03/27 09:10:29;;;;;;;0.93;0.90;;;;;;;6.90;60.66;99373.38;5154386;27;20058;-66
2022/03/27 09:12:56;;;;;;;12.50;1.10;;;;;;;6.97;59.79;99364.66;5153780;27;20055;-67
2022/03/27 09:15:23;;;;;;;3.03;0.82;;;;;;;7.00;60.86;99355.81;5154195;27;20043;-66
2022/03/27 09:18:04;;;;;;;4.78;0.80;;;;;;;7.25;60.39;99373.00;5153869;27;20047;-66
2022/03/27 09:20:36;;;;;;;3.95;0.88;;;;;;;7.35;61.23;99371.78;5154153;27;20497;-66
2022/03/27 09:23:14;;;;;;;2.45;0.70;;;;;;;7.06;61.16;99365.34;5154031;27;20123;-66
2022/03/27 09:25:45;;;;;;;0.75;0.75;;;;;;;6.77;62.13;99372.53;5154090;27;20042;-66
2022/03/27 09:28:12;;;;;;;1.15;1.02;;;;;;;6.56;61.70;99369.81;5154175;27;20050;-67
2022/03/27 09:30:38;;;;;;;0.73;0.73;;;;;;;6.23;61.49;99380.63;5153948;27;20576;-66
2022/03/27 09:33:05;;;;;;;0.60;0.60;;;;;;;6.20;60.16;99384.00;5154318;27;20116;-67
2022/03/27 09:35:33;;;;;;;0.70;0.70;;;;;;;6.59;60.96;99395.56;5153778;27;20471;-66
2022/03/27 09:37:59;;;;;;;0.70;0.70;;;;;;;6.62;61.46;99383.22;5154266;27;20491;-67
2022/03/27 09:40:36;;;;;;;1.38;0.70;;;;;;;6.40;60.96;99381.63;5153958;27;20079;-66
2022/03/27 09:43:13;;;;;;;1.88;0.93;;;;;;;6.13;61.87;99387.25;5153586;27;20054;-66
2022/03/27 09:45:54;;;;;;;0.80;0.80;;;;;;;5.90;65.66;99388.63;5153752;27;20042;-66
2022/03/27 09:48:21;;;;;;;1.20;0.85;;;;;;;5.76;65.57;99372.50;5153313;27;20093;-66
2022/03/27 09:50:47;;;;;;;0.60;0.60;;;;;;;5.26;64.21;99389.50;5153684;27;20047;-67
2022/03/27 09:53:22;;;;;;;3.28;1.17;;;;;;;4.98;66.17;99394.53;5153491;27;20058;-67
2022/03/27 09:55:53;;;;;;;1.55;0.77;;;;;;;5.51;66.75;99392.47;5153755;27;20161;-66
2022/03/27 09:58:34;;;;;;;1.40;0.77;;;;;;;5.65;61.83;99395.78;5153092;27;20080;-67
2022/03/27 10:01:08;;;;;;;1.02;0.80;;;;;;;5.42;63.88;99387.84;5150607;27;20042;-66
2022/03/27 10:03:36;;;;;;;1.85;0.68;;;;;;;5.32;63.81;99392.84;5153309;27;20046;-66
2022/03/27 10:06:03;;;;;;;0.70;0.70;;;;;;;5.38;62.51;99407.88;5153273;27;20091;-66
2022/03/27 10:08:29;;;;;;;2.75;0.80;;;;;;;5.55;61.93;99409.72;5153164;27;20057;-67
2022/03/27 10:10:58;;;;;;;0.98;0.85;;;;;;;5.48;61.24;99407.50;5153002;27;20421;-66
2022/03/27 10:13:29;;;;;;;3.97;0.80;;;;;;;5.57;60.66;99394.69;5152941;27;20137;-67
2022/03/27 10:15:59;;;;;;;1.75;0.90;;;;;;;5.50;59.00;99418.88;5153211;27;20078;-66
2022/03/27 10:18:27;;;;;;;1.35;0.80;;;;;;;5.37;59.49;99420.66;5153099;27;20184;-67
2022/03/27 10:20:58;;;;;;;2.25;0.90;;;;;;;5.36;57.39;99426.41;5153087;27;20047;-67
2022/03/27 10:23:28;;;;;;;0.88;0.60;;;;;;;5.61;58.65;99409.22;5153140;27;20047;-67
2022/03/27 10:25:59;;;;;;;3.50;1.25;;;;;;;6.09;59.10;99412.72;5153261;27;20043;-67
2022/03/27 10:28:27;;;;;;;0.63;0.63;;;;;;;5.74;57.46;99431.91;5153050;27;20549;-67
2022/03/27 10:30:54;;;;;;;1.40;0.90;;;;;;;5.43;58.35;99413.13;5152964;27;20080;-66
2022/03/27 10:33:24;;;;;;;2.60;0.80;;;;;;;5.27;57.79;99421.00;5152779;27;20050;-66
2022/03/27 10:35:56;;;;;;;1.20;0.70;;;;;;;5.56;60.21;99424.91;5152798;27;20047;-67
2022/03/27 10:38:42;;;;;;;10.55;1.05;;;;;;;5.97;58.88;99432.50;5152957;27;20058;-67
2022/03/27 10:41:16;;;;;;;7.55;0.85;;;;;;;6.12;58.78;99420.22;5152727;27;20058;-66
2022/03/27 10:43:50;;;;;;;0.70;0.60;;;;;;;5.83;57.58;99440.84;5152710;27;20558;-67
2022/03/27 10:46:19;;;;;;;7.70;1.02;;;;;;;5.63;57.83;99436.09;5152808;27;20047;-67
2022/03/27 10:48:46;;;;;;;0.80;0.65;;;;;;;5.44;56.82;99431.06;5152723;27;20141;-66
2022/03/27 10:51:32;;;;;;;2.75;0.80;;;;;;;5.50;57.67;99443.34;5152401;27;20054;-67
2022/03/27 10:54:04;;;;;;;1.00;0.60;;;;;;;5.46;56.63;99447.81;5152782;27;20054;-67
2022/03/27 10:56:35;;;;;;;2.10;0.90;;;;;;;5.26;56.26;99441.16;5152360;27;20050;-67
2022/03/27 10:59:10;;;;;;;0.60;0.60;;;;;;;5.44;56.25;99455.53;5152707;27;20501;-66
2022/03/27 11:01:38;;;;;;;0.95;0.68;;;;;;;5.52;57.88;99451.19;5151592;27;20573;-67
2022/03/27 11:04:06;;;;;;;1.50;0.60;;;;;;;5.75;56.11;99449.03;5152514;27;20046;-67
2022/03/27 11:06:34;;;;;;;1.13;0.70;;;;;;;5.70;55.98;99435.59;5153214;27;20936;-67
2022/03/27 11:09:02;;;;;;;2.00;0.60;;;;;;;5.85;56.48;99438.56;5152221;27;20053;-67
2022/03/27 11:11:54;;;;;;;1.85;0.63;;;;;;;5.97;56.73;99437.13;5133957;27;20069;-67
2022/03/27 11:14:59;;;;;;;0.43;0.43;;;;;;;5.61;55.51;99439.16;5151758;27;20500;-67
2022/03/27 11:17:40;;;;;;;0.57;0.57;;;;;;;5.31;54.12;99443.72;5140246;27;20062;-66
2022/03/27 11:20:09;;;;;;;0.50;0.50;;;;;;;4.68;52.91;99439.75;5152031;27;20568;-66
2022/03/27 11:22:43;;;;;;;1.88;0.50;;;;;;;4.02;53.25;99437.06;5152201;27;20089;-67
2022/03/27 11:25:45;;;;;;;1.33;0.50;;;;;;;3.94;53.71;99433.22;5151937;27;20069;-66
2022/03/27 11:28:12;;;;;;;0.50;0.50;;;;;;;3.49;53.01;99446.88;5151997;27;20055;-67
2022/03/27 11:31:00;;;;;;;2.05;0.60;;;;;;;3.35;53.82;99427.19;5151965;27;20111;-67
2022/03/27 11:33:29;;;;;;;1.35;0.77;;;;;;;3.27;54.96;99439.59;5152059;27;20050;-67
2022/03/27 11:36:24;;;;;;;0.70;0.70;;;;;;;3.24;54.97;99434.78;5151912;27;20103;-67
2022/03/27 11:39:02;;;;;;;1.98;0.50;;;;;;;3.08;54.69;99447.13;5151985;27;20400;-67
2022/03/27 11:41:34;;;;;;;0.47;0.47;;;;;;;2.91;55.41;99450.50;5151686;27;20564;-67
2022/03/27 11:44:22;;;;;;;2.25;0.75;;;;;;;2.98;56.16;99444.66;5152107;27;20061;-67
2022/03/27 11:46:50;;;;;;;0.82;0.60;;;;;;;3.08;56.38;99443.63;5151041;27;20497;-67
2022/03/27 11:49:17;;;;;;;0.50;0.50;;;;;;;3.16;56.66;99453.69;5151965;27;20099;-67
2022/03/27 11:51:43;;;;;;;0.50;0.50;;;;;;;3.22;56.85;99445.13;5151577;27;20046;-67